createdAt,value
2022-10-18T00:00:06.427Z,100.00
2022-10-18T00:02:33.119Z,100.00
2022-10-18T00:04:59.748Z,100.00
2022-10-18T00:07:26.384Z,100.00
2022-10-18T00:09:53.013Z,100.00
2022-10-18T00:12:19.640Z,100.00
2022-10-18T00:14:50.029Z,100.00
2022-10-18T00:17:16.956Z,100.00
2022-10-18T00:19:43.864Z,100.00
2022-10-18T00:22:10.461Z,100.00
2022-10-18T00:24:37.061Z,100.00
2022-10-18T00:27:03.711Z,100.00
2022-10-18T00:29:30.292Z,100.00
2022-10-18T00:31:56.907Z,100.00
2022-10-18T00:34:23.543Z,100.00
2022-10-18T00:36:50.168Z,100.00
2022-10-18T00:39:20.234Z,100.00
2022-10-18T00:41:47.783Z,100.00
2022-10-18T00:44:14.303Z,100.00
2022-10-18T00:46:44.316Z,100.00
2022-10-18T00:49:12.983Z,100.00
2022-10-18T00:51:48.715Z,100.00
2022-10-18T00:54:17.229Z,100.00
2022-10-18T00:56:45.024Z,100.00
2022-10-18T00:59:15.269Z,100.00
2022-10-18T01:01:42.044Z,100.00
2022-10-18T01:04:08.868Z,100.00
2022-10-18T01:06:47.198Z,100.00
2022-10-18T01:09:32.348Z,100.00
2022-10-18T01:12:18.214Z,100.00
2022-10-18T01:14:50.761Z,100.00
2022-10-18T01:17:24.485Z,100.00
2022-10-18T01:20:13.673Z,100.00
2022-10-18T01:22:48.112Z,100.00
2022-10-18T01:25:30.554Z,100.00
2022-10-18T01:28:34.404Z,100.00
2022-10-18T01:31:10.729Z,100.00
2022-10-18T01:33:51.144Z,100.00
2022-10-18T01:36:36.169Z,100.00
2022-10-18T01:39:07.625Z,100.00
2022-10-18T01:41:38.670Z,100.00
2022-10-18T01:44:08.492Z,100.00
2022-10-18T01:46:37.376Z,100.00
2022-10-18T01:49:04.581Z,100.00
2022-10-18T01:51:33.108Z,100.00
2022-10-18T01:54:00.500Z,100.00
2022-10-18T01:56:42.697Z,100.00
2022-10-18T01:59:15.381Z,100.00
2022-10-18T02:02:00.540Z,100.00
2022-10-18T02:04:34.909Z,100.00
2022-10-18T02:07:26.834Z,100.00
2022-10-18T02:10:35.121Z,100.00
2022-10-18T02:13:02.795Z,100.00
2022-10-18T02:15:39.847Z,100.00
2022-10-18T02:18:11.291Z,100.00
2022-10-18T02:20:39.123Z,100.00
2022-10-18T02:23:08.381Z,100.00
2022-10-18T02:25:36.195Z,100.00
2022-10-18T02:28:04.357Z,100.00
2022-10-18T02:30:41.034Z,100.00
2022-10-18T02:33:20.302Z,100.00
2022-10-18T02:36:03.957Z,100.00
2022-10-18T02:38:32.384Z,100.00
2022-10-18T02:40:59.736Z,100.00
2022-10-18T02:43:26.933Z,100.00
2022-10-18T02:45:53.697Z,100.00
2022-10-18T02:48:20.367Z,100.00
2022-10-18T02:50:47.028Z,100.00
2022-10-18T02:53:13.610Z,100.00
2022-10-18T02:55:40.188Z,100.00
2022-10-18T02:58:06.857Z,100.00
2022-10-18T03:00:33.432Z,100.00
2022-10-18T03:03:00.052Z,100.00
2022-10-18T03:05:26.653Z,100.00
2022-10-18T03:07:53.284Z,100.00
2022-10-18T03:10:19.956Z,100.00
2022-10-18T03:12:46.599Z,100.00
2022-10-18T03:15:13.215Z,100.00
2022-10-18T03:17:39.792Z,100.00
2022-10-18T03:20:07.093Z,100.00
2022-10-18T03:22:33.710Z,100.00
2022-10-18T03:25:00.326Z,100.00
2022-10-18T03:27:27.008Z,100.00
2022-10-18T03:29:53.612Z,100.00
2022-10-18T03:32:20.201Z,100.00
2022-10-18T03:34:46.792Z,100.00
2022-10-18T03:37:13.428Z,100.00
2022-10-18T03:39:40.037Z,100.00
2022-10-18T03:42:06.627Z,100.00
2022-10-18T03:44:33.203Z,100.00
2022-10-18T03:46:59.852Z,100.00
2022-10-18T03:49:26.505Z,100.00
2022-10-18T03:51:53.152Z,100.00
2022-10-18T03:54:19.841Z,100.00
2022-10-18T03:56:46.508Z,100.00
2022-10-18T03:59:13.684Z,100.00
2022-10-18T04:01:40.355Z,100.00
2022-10-18T04:04:07.036Z,100.00
2022-10-18T04:06:33.657Z,100.00
2022-10-18T04:09:00.273Z,100.00
2022-10-18T04:11:26.906Z,100.00
2022-10-18T04:13:53.489Z,100.00
2022-10-18T04:16:20.134Z,100.00
2022-10-18T04:18:46.777Z,100.00
2022-10-18T04:21:13.401Z,100.00
2022-10-18T04:23:40.027Z,100.00
2022-10-18T04:26:07.601Z,100.00
2022-10-18T04:28:35.428Z,100.00
2022-10-18T04:31:02.186Z,100.00
2022-10-18T04:33:28.837Z,100.00
2022-10-18T04:35:55.420Z,100.00
2022-10-18T04:38:22.068Z,100.00
2022-10-18T04:40:48.747Z,100.00
2022-10-18T04:43:15.821Z,100.00
2022-10-18T04:45:45.460Z,100.00
2022-10-18T04:48:12.487Z,100.00
2022-10-18T04:50:39.122Z,100.00
2022-10-18T04:53:05.703Z,100.00
2022-10-18T04:55:32.356Z,100.00
2022-10-18T04:57:58.937Z,100.00
2022-10-18T05:00:25.761Z,100.00
2022-10-18T05:02:58.747Z,100.00
2022-10-18T05:05:33.139Z,100.00
2022-10-18T05:08:12.915Z,100.00
2022-10-18T05:10:39.657Z,100.00
2022-10-18T05:13:06.348Z,100.00
2022-10-18T05:15:32.965Z,100.00
2022-10-18T05:17:59.651Z,100.00
2022-10-18T05:20:26.562Z,100.00
2022-10-18T05:22:53.157Z,100.00
2022-10-18T05:25:19.791Z,100.00
2022-10-18T05:27:46.472Z,100.00
2022-10-18T05:30:13.213Z,100.00
2022-10-18T05:32:39.788Z,100.00
2022-10-18T05:35:06.988Z,100.00
2022-10-18T05:37:33.709Z,100.00
2022-10-18T05:40:00.326Z,100.00
2022-10-18T05:42:26.923Z,100.00
2022-10-18T05:44:53.549Z,100.00
2022-10-18T05:47:20.146Z,100.00
2022-10-18T05:49:47.797Z,100.00
2022-10-18T05:52:14.462Z,100.00
2022-10-18T05:54:41.060Z,100.00
2022-10-18T05:57:07.652Z,100.00
2022-10-18T05:59:34.316Z,100.00
2022-10-18T06:02:00.901Z,100.00
2022-10-18T06:04:27.473Z,100.00
2022-10-18T06:06:55.991Z,100.00
2022-10-18T06:09:22.740Z,100.00
2022-10-18T06:11:49.332Z,100.00
2022-10-18T06:14:15.936Z,100.00
2022-10-18T06:16:42.536Z,100.00
2022-10-18T06:19:09.124Z,100.00
2022-10-18T06:21:35.766Z,100.00
2022-10-18T06:24:02.384Z,100.00
2022-10-18T06:26:29.039Z,100.00
2022-10-18T06:28:55.899Z,100.00
2022-10-18T06:31:22.677Z,100.00
2022-10-18T06:33:49.661Z,100.00
2022-10-18T06:36:19.157Z,100.00
2022-10-18T06:38:45.888Z,100.00
2022-10-18T06:41:12.627Z,100.00
2022-10-18T06:43:39.814Z,100.00
2022-10-18T06:46:08.185Z,99.87
2022-10-18T06:48:39.162Z,96.36
2022-10-18T06:51:07.269Z,94.28
2022-10-18T06:53:43.796Z,92.85
2022-10-18T06:56:20.138Z,90.79
2022-10-18T06:58:46.817Z,89.67
2022-10-18T07:01:18.426Z,88.81
2022-10-18T07:03:47.196Z,89.01
2022-10-18T07:06:16.493Z,86.82
2022-10-18T07:08:43.744Z,86.59
2022-10-18T07:11:16.225Z,86.44
2022-10-18T07:13:43.107Z,84.85
2022-10-18T07:16:18.307Z,85.13
2022-10-18T07:18:50.474Z,83.65
2022-10-18T07:21:19.938Z,84.52
2022-10-18T07:23:47.520Z,81.58
2022-10-18T07:26:17.243Z,81.45
2022-10-18T07:28:45.860Z,80.93
2022-10-18T07:31:13.483Z,79.15
2022-10-18T07:33:40.391Z,77.84
2022-10-18T07:36:09.154Z,76.22
2022-10-18T07:38:36.524Z,74.92
2022-10-18T07:41:06.691Z,72.82
2022-10-18T07:43:34.330Z,73.10
2022-10-18T07:46:04.435Z,71.82
2022-10-18T07:48:31.297Z,70.72
2022-10-18T07:50:59.738Z,69.69
2022-10-18T07:53:26.836Z,69.35
2022-10-18T07:55:57.379Z,68.25
2022-10-18T07:58:23.971Z,68.41
2022-10-18T08:00:50.540Z,67.83
2022-10-18T08:03:17.268Z,68.06
2022-10-18T08:05:43.899Z,67.56
2022-10-18T08:08:10.525Z,67.35
2022-10-18T08:10:37.219Z,66.36
2022-10-18T08:13:03.813Z,65.84
2022-10-18T08:15:30.388Z,64.63
2022-10-18T08:17:56.994Z,64.45
2022-10-18T08:20:30.849Z,63.46
2022-10-18T08:23:00.302Z,61.70
2022-10-18T08:25:28.324Z,61.52
2022-10-18T08:27:55.061Z,60.48
2022-10-18T08:30:23.370Z,59.83
2022-10-18T08:32:49.988Z,59.66
2022-10-18T08:35:16.664Z,60.21
2022-10-18T08:37:45.322Z,60.08
2022-10-18T08:40:15.727Z,58.90
2022-10-18T08:43:22.629Z,57.71
2022-10-18T08:45:51.063Z,58.75
2022-10-18T08:48:31.068Z,57.07
2022-10-18T08:50:58.494Z,58.19
2022-10-18T08:53:36.254Z,57.05
2022-10-18T08:56:21.194Z,55.70
2022-10-18T08:58:47.907Z,55.02
2022-10-18T09:04:52.472Z,55.43
2022-10-18T09:07:55.846Z,54.69
2022-10-18T09:10:52.172Z,52.87
2022-10-18T09:13:24.855Z,52.13
2022-10-18T09:16:15.300Z,52.53
2022-10-18T09:18:47.813Z,52.02
2022-10-18T09:21:17.320Z,52.04
2022-10-18T09:23:48.397Z,51.65
2022-10-18T09:26:19.920Z,51.40
2022-10-18T09:29:14.832Z,49.42
2022-10-18T09:31:53.809Z,48.43
2022-10-18T09:34:53.943Z,48.57
2022-10-18T09:37:21.639Z,48.80
2022-10-18T09:39:50.674Z,48.53
2022-10-18T09:42:38.172Z,48.83
2022-10-18T09:45:32.030Z,46.73
2022-10-18T09:48:09.673Z,46.86
2022-10-18T09:50:58.585Z,45.91
2022-10-18T09:53:46.279Z,47.23
2022-10-18T09:56:26.322Z,45.79
2022-10-18T09:58:52.989Z,44.78
2022-10-18T10:01:27.683Z,44.18
2022-10-18T10:03:54.634Z,44.28
2022-10-18T10:06:28.702Z,44.54
2022-10-18T10:09:08.030Z,43.88
2022-10-18T10:11:36.527Z,42.96
2022-10-18T10:14:27.533Z,43.25
2022-10-18T10:16:57.025Z,43.69
2022-10-18T10:19:28.144Z,42.72
2022-10-18T10:22:10.591Z,42.73
2022-10-18T10:24:39.880Z,42.47
2022-10-18T10:27:15.472Z,42.96
2022-10-18T10:29:52.297Z,42.61
2022-10-18T10:32:21.396Z,42.17
2022-10-18T10:34:48.321Z,42.38
2022-10-18T10:37:28.753Z,42.64
2022-10-18T10:40:23.973Z,43.00
2022-10-18T10:43:33.145Z,41.97
2022-10-18T10:46:15.103Z,41.66
2022-10-18T10:49:27.854Z,42.50
2022-10-18T10:52:02.456Z,41.30
2022-10-18T10:54:39.032Z,41.86
2022-10-18T10:57:23.329Z,40.96
2022-10-18T10:59:52.651Z,41.29
2022-10-18T11:02:37.801Z,41.41
2022-10-18T11:05:29.464Z,42.18
2022-10-18T11:07:59.565Z,41.07
2022-10-18T11:10:30.813Z,40.45
2022-10-18T11:13:31.483Z,39.81
2022-10-18T11:16:10.235Z,40.38
2022-10-18T11:18:38.247Z,40.89
2022-10-18T11:21:12.824Z,41.44
2022-10-18T11:23:42.172Z,41.77
2022-10-18T11:26:11.660Z,39.76
2022-10-18T11:28:47.499Z,39.29
2022-10-18T11:31:41.638Z,39.47
2022-10-18T11:34:39.041Z,39.12
2022-10-18T11:37:38.394Z,38.94
2022-10-18T11:40:28.343Z,39.35
2022-10-18T11:43:13.134Z,39.63
2022-10-18T11:45:48.778Z,39.58
2022-10-18T11:48:52.044Z,38.92
2022-10-18T11:51:56.388Z,38.69
2022-10-18T11:54:52.128Z,38.79
2022-10-18T11:57:42.739Z,38.64
2022-10-18T12:00:34.607Z,37.76
2022-10-18T12:03:37.695Z,38.92
2022-10-18T12:06:17.248Z,37.92
2022-10-18T12:08:59.597Z,38.30
2022-10-18T12:11:50.232Z,38.03
2022-10-18T12:14:27.364Z,38.32
2022-10-18T12:17:27.911Z,37.04
2022-10-18T12:19:47.022Z,38.33
2022-10-18T12:22:23.119Z,36.69
2022-10-18T12:24:49.727Z,37.64
2022-10-18T12:27:16.956Z,38.22
2022-10-18T12:29:58.113Z,38.34
2022-10-18T12:32:34.069Z,38.08
2022-10-18T12:35:15.344Z,37.97
2022-10-18T12:37:54.041Z,38.72
2022-10-18T12:40:26.151Z,38.12
2022-10-18T12:42:53.498Z,38.79
2022-10-18T12:45:25.189Z,37.80
2022-10-18T12:47:52.579Z,36.98
2022-10-18T12:50:40.533Z,38.23
2022-10-18T12:53:10.269Z,37.29
2022-10-18T12:58:16.043Z,38.05
2022-10-18T13:00:42.593Z,37.74
2022-10-18T13:03:09.146Z,38.05
2022-10-18T13:06:06.408Z,37.76
2022-10-18T13:08:42.249Z,36.98
2022-10-18T13:11:11.651Z,36.36
2022-10-18T13:14:02.232Z,36.53
2022-10-18T13:16:50.958Z,36.37
2022-10-18T13:20:20.560Z,35.62
2022-10-18T13:22:59.428Z,35.92
2022-10-18T13:25:34.598Z,35.95
2022-10-18T13:28:30.352Z,35.56
2022-10-18T13:31:19.592Z,35.71
2022-10-18T13:33:46.363Z,36.29
2022-10-18T13:36:22.879Z,35.62
2022-10-18T13:38:50.467Z,35.95
2022-10-18T13:41:18.596Z,35.92
2022-10-18T13:44:00.464Z,36.33
2022-10-18T13:46:33.192Z,35.36
2022-10-18T13:49:17.513Z,34.93
2022-10-18T13:52:14.534Z,35.99
2022-10-18T13:55:06.142Z,35.58
2022-10-18T13:57:57.076Z,35.11
2022-10-18T14:01:31.624Z,35.01
2022-10-18T14:04:24.176Z,34.69
2022-10-18T14:06:52.283Z,34.90
2022-10-18T14:09:40.450Z,35.94
2022-10-18T14:12:29.209Z,37.25
2022-10-18T14:15:17.198Z,37.05
2022-10-18T14:17:53.593Z,36.75
2022-10-18T14:20:49.133Z,36.65
2022-10-18T14:23:24.803Z,37.26
2022-10-18T14:25:51.654Z,37.34
2022-10-18T14:28:27.353Z,38.19
2022-10-18T14:31:12.777Z,38.17
2022-10-18T14:33:46.428Z,37.73
2022-10-18T14:36:26.566Z,37.75
2022-10-18T14:38:57.104Z,38.69
2022-10-18T14:41:29.041Z,38.61
2022-10-18T14:44:14.294Z,37.41
2022-10-18T14:46:52.877Z,37.94
2022-10-18T14:49:21.014Z,38.48
2022-10-18T14:51:51.629Z,37.72
2022-10-18T14:54:33.860Z,38.96
2022-10-18T14:57:02.261Z,38.54
2022-10-18T14:59:32.596Z,39.64
2022-10-18T15:02:03.203Z,39.50
2022-10-18T15:04:33.265Z,40.79
2022-10-18T15:07:07.833Z,41.60
2022-10-18T15:09:36.965Z,41.56
2022-10-18T15:12:05.936Z,41.98
2022-10-18T15:14:34.019Z,42.34
2022-10-18T15:17:07.515Z,43.40
2022-10-18T15:19:42.939Z,43.52
2022-10-18T15:25:05.683Z,44.47
2022-10-18T15:27:35.768Z,45.21
2022-10-18T15:30:34.533Z,45.98
2022-10-18T15:33:03.099Z,45.88
2022-10-18T15:35:35.712Z,45.87
2022-10-18T15:38:24.474Z,46.01
2022-10-18T15:40:51.136Z,47.53
2022-10-18T15:43:24.155Z,51.50
2022-10-18T15:46:05.345Z,51.84
2022-10-18T15:48:41.271Z,52.14
2022-10-18T15:51:18.906Z,52.70
2022-10-18T15:53:52.951Z,54.52
2022-10-18T15:56:35.935Z,56.24
2022-10-18T15:59:06.116Z,57.22
2022-10-18T16:01:42.380Z,56.61
2022-10-18T16:04:20.021Z,56.24
2022-10-18T16:06:46.703Z,56.82
2022-10-18T16:09:16.652Z,57.30
2022-10-18T16:11:43.409Z,60.49
2022-10-18T16:14:10.184Z,61.42
2022-10-18T16:16:36.975Z,60.66
2022-10-18T16:19:04.048Z,65.74
2022-10-18T16:21:31.876Z,68.32
2022-10-18T16:23:58.556Z,69.22
2022-10-18T16:26:26.101Z,70.09
2022-10-18T16:28:53.886Z,69.44
2022-10-18T16:31:23.012Z,69.36
2022-10-18T16:33:50.862Z,69.99
2022-10-18T16:36:31.451Z,70.95
2022-10-18T16:39:01.300Z,71.63
2022-10-18T16:41:27.939Z,72.00
2022-10-18T16:43:54.586Z,71.13
2022-10-18T16:46:23.947Z,73.90
2022-10-18T16:48:51.370Z,74.73
2022-10-18T16:51:18.216Z,75.40
2022-10-18T16:53:45.199Z,75.92
2022-10-18T16:56:17.841Z,76.05
2022-10-18T16:58:45.481Z,75.79
2022-10-18T17:01:17.890Z,77.31
2022-10-18T17:03:45.072Z,77.57
2022-10-18T17:06:17.669Z,78.35
2022-10-18T17:08:45.121Z,81.30
2022-10-18T17:11:13.582Z,83.24
2022-10-18T17:13:40.944Z,84.52
2022-10-18T17:16:18.360Z,84.72
2022-10-18T17:18:45.012Z,85.52
2022-10-18T17:21:11.612Z,85.56
2022-10-18T17:23:38.981Z,85.82
2022-10-18T17:26:26.165Z,85.79
2022-10-18T17:28:59.049Z,86.45
2022-10-18T17:31:25.763Z,86.35
2022-10-18T17:33:54.659Z,86.29
2022-10-18T17:36:22.061Z,87.71
2022-10-18T17:38:53.027Z,89.35
2022-10-18T17:41:20.348Z,89.20
2022-10-18T17:43:48.293Z,89.16
2022-10-18T17:46:16.236Z,88.59
2022-10-18T17:48:42.899Z,88.93
2022-10-18T17:51:11.880Z,90.48
2022-10-18T17:53:39.076Z,91.71
2022-10-18T17:56:07.359Z,92.07
2022-10-18T17:58:34.643Z,92.65
2022-10-18T18:01:15.958Z,93.94
2022-10-18T18:03:43.458Z,94.54
2022-10-18T18:06:20.608Z,94.68
2022-10-18T18:08:48.593Z,94.49
2022-10-18T18:11:16.172Z,94.84
2022-10-18T18:13:43.054Z,95.03
2022-10-18T18:16:16.056Z,93.67
2022-10-18T18:18:43.903Z,94.12
2022-10-18T18:21:11.038Z,93.28
2022-10-18T18:23:37.925Z,93.82
2022-10-18T18:26:04.931Z,95.87
2022-10-18T18:28:31.546Z,97.06
2022-10-18T18:30:58.171Z,98.19
2022-10-18T18:33:24.818Z,98.83
2022-10-18T18:35:58.618Z,98.50
2022-10-18T18:38:26.121Z,98.36
2022-10-18T18:41:04.197Z,99.16
2022-10-18T18:43:30.935Z,99.19
2022-10-18T18:45:57.569Z,99.28
2022-10-18T18:48:24.553Z,99.62
2022-10-18T18:50:52.323Z,100.00
2022-10-18T18:53:19.184Z,100.00
2022-10-18T18:55:46.155Z,100.00
2022-10-18T18:58:12.894Z,100.00
2022-10-18T19:00:43.607Z,100.00
2022-10-18T19:03:11.532Z,100.00
2022-10-18T19:05:38.228Z,100.00
2022-10-18T19:08:05.929Z,100.00
2022-10-18T19:10:32.890Z,100.00
2022-10-18T19:12:59.581Z,100.00
2022-10-18T19:15:26.265Z,100.00
2022-10-18T19:17:52.850Z,100.00
2022-10-18T19:20:19.635Z,100.00
2022-10-18T19:22:46.280Z,100.00
2022-10-18T19:25:13.212Z,100.00
2022-10-18T19:27:40.059Z,100.00
2022-10-18T19:30:09.612Z,100.00
2022-10-18T19:32:36.329Z,100.00
2022-10-18T19:35:03.518Z,100.00
2022-10-18T19:37:30.377Z,100.00
2022-10-18T19:39:58.545Z,100.00
2022-10-18T19:42:30.341Z,100.00
2022-10-18T19:44:57.966Z,100.00
2022-10-18T19:47:24.555Z,100.00
2022-10-18T19:49:52.782Z,100.00
2022-10-18T19:52:19.390Z,100.00
2022-10-18T19:54:48.723Z,100.00
2022-10-18T19:57:15.449Z,100.00
2022-10-18T19:59:42.046Z,100.00
2022-10-18T20:02:14.106Z,100.00
2022-10-18T20:04:40.964Z,100.00
2022-10-18T20:07:07.554Z,100.00
2022-10-18T20:09:34.412Z,100.00
2022-10-18T20:12:01.147Z,100.00
2022-10-18T20:14:27.892Z,100.00
2022-10-18T20:16:55.004Z,100.00
2022-10-18T20:19:21.852Z,100.00
2022-10-18T20:21:48.501Z,100.00
2022-10-18T20:24:15.118Z,100.00
2022-10-18T20:26:43.552Z,100.00
2022-10-18T20:29:10.442Z,100.00
2022-10-18T20:31:39.063Z,100.00
2022-10-18T20:34:08.951Z,100.00
2022-10-18T20:36:35.608Z,100.00
2022-10-18T20:39:04.363Z,100.00
2022-10-18T20:41:36.478Z,100.00
2022-10-18T20:44:07.090Z,100.00
2022-10-18T20:46:36.654Z,100.00
2022-10-18T20:49:04.530Z,100.00
2022-10-18T20:51:33.450Z,100.00
2022-10-18T20:56:34.330Z,100.00
2022-10-18T20:59:01.772Z,100.00
2022-10-18T21:01:33.452Z,100.00
2022-10-18T21:04:01.993Z,100.00
2022-10-18T21:06:42.862Z,100.00
2022-10-18T21:09:15.847Z,100.00
2022-10-18T21:11:45.022Z,100.00
2022-10-18T21:14:17.641Z,100.00
2022-10-18T21:16:45.408Z,100.00
2022-10-18T21:19:13.582Z,100.00
2022-10-18T21:21:42.333Z,100.00
2022-10-18T21:24:08.991Z,100.00
2022-10-18T21:26:36.500Z,100.00
2022-10-18T21:29:04.907Z,100.00
2022-10-18T21:31:34.942Z,100.00
2022-10-18T21:34:02.587Z,100.00
2022-10-18T21:36:35.193Z,100.00
2022-10-18T21:39:07.728Z,100.00
2022-10-18T21:41:34.779Z,100.00
2022-10-18T21:44:04.507Z,100.00
2022-10-18T21:46:33.536Z,100.00
2022-10-18T21:49:00.176Z,100.00
2022-10-18T21:51:28.120Z,100.00
2022-10-18T21:53:56.960Z,100.00
2022-10-18T21:56:29.507Z,100.00
2022-10-18T21:58:57.229Z,100.00
2022-10-18T22:01:25.093Z,100.00
2022-10-18T22:03:53.631Z,100.00
2022-10-18T22:06:21.438Z,100.00
2022-10-18T22:08:56.121Z,100.00
2022-10-18T22:11:34.347Z,100.00
2022-10-18T22:14:01.055Z,100.00
2022-10-18T22:16:28.132Z,100.00
2022-10-18T22:18:58.384Z,100.00
2022-10-18T22:21:25.109Z,100.00
2022-10-18T22:23:54.099Z,100.00
2022-10-18T22:26:26.528Z,100.00
2022-10-18T22:28:58.669Z,100.00
2022-10-18T22:31:28.348Z,100.00
2022-10-18T22:33:57.393Z,100.00
2022-10-18T22:36:24.704Z,100.00
2022-10-18T22:38:51.509Z,100.00
2022-10-18T22:41:18.622Z,100.00
2022-10-18T22:43:47.624Z,100.00
2022-10-18T22:46:15.525Z,100.00
2022-10-18T22:48:43.363Z,100.00
2022-10-18T22:51:10.576Z,100.00
2022-10-18T22:53:39.002Z,100.00
2022-10-18T22:56:06.005Z,100.00
2022-10-18T22:58:33.045Z,100.00
2022-10-18T23:01:11.035Z,100.00
2022-10-18T23:03:38.329Z,100.00
2022-10-18T23:06:06.348Z,100.00
2022-10-18T23:08:33.261Z,100.00
2022-10-18T23:11:00.401Z,100.00
2022-10-18T23:13:27.773Z,100.00
2022-10-18T23:16:04.301Z,100.00
2022-10-18T23:18:32.962Z,100.00
2022-10-18T23:21:04.583Z,100.00
2022-10-18T23:23:35.430Z,100.00
2022-10-18T23:26:04.480Z,100.00
2022-10-18T23:28:34.748Z,100.00
2022-10-18T23:31:19.295Z,100.00
2022-10-18T23:33:51.346Z,100.00
2022-10-18T23:36:18.294Z,100.00
2022-10-18T23:38:45.518Z,100.00
2022-10-18T23:41:14.007Z,100.00
2022-10-18T23:43:41.518Z,100.00
2022-10-18T23:46:09.126Z,100.00
2022-10-18T23:48:36.137Z,100.00
2022-10-18T23:51:03.522Z,100.00
2022-10-18T23:53:30.757Z,100.00
2022-10-18T23:56:02.465Z,100.00
2022-10-18T23:58:30.916Z,100.00
